createdAt,value
2018-11-28T00:00:30.533Z,66.53
2018-11-28T00:03:00.751Z,66.58
2018-11-28T00:05:29.892Z,66.57
2018-11-28T00:07:58.892Z,66.77
2018-11-28T00:10:27.904Z,66.67
2018-11-28T00:12:56.910Z,66.81
2018-11-28T00:15:25.908Z,66.91
2018-11-28T00:17:54.919Z,66.98
2018-11-28T00:20:24.153Z,66.96
2018-11-28T00:22:53.145Z,67.32
2018-11-28T00:25:22.128Z,67.58
2018-11-28T00:27:51.129Z,67.41
2018-11-28T00:30:21.998Z,67.57
2018-11-28T00:32:50.977Z,67.49
2018-11-28T00:35:22.925Z,67.81
2018-11-28T00:37:51.910Z,67.68
2018-11-28T00:40:21.933Z,67.92
2018-11-28T00:42:50.931Z,67.93
2018-11-28T00:45:21.677Z,68.38
2018-11-28T00:47:50.653Z,68.28
2018-11-28T00:50:28.152Z,68.51
2018-11-28T00:52:57.151Z,68.54
2018-11-28T00:55:26.137Z,68.61
2018-11-28T00:57:55.114Z,68.77
2018-11-28T01:00:25.162Z,68.73
2018-11-28T01:02:54.142Z,69.16
2018-11-28T01:05:23.125Z,68.94
2018-11-28T01:07:53.076Z,69.34
2018-11-28T01:10:23.023Z,69.66
2018-11-28T01:12:52.785Z,69.82
2018-11-28T01:15:22.161Z,69.79
2018-11-28T01:17:51.167Z,69.97
2018-11-28T01:20:21.478Z,69.92
2018-11-28T01:22:50.451Z,70.22
2018-11-28T01:25:20.538Z,70.16
2018-11-28T01:27:49.916Z,70.47
2018-11-28T01:30:22.057Z,70.26
2018-11-28T01:32:51.087Z,70.34
2018-11-28T01:35:20.870Z,70.07
2018-11-28T01:37:49.859Z,70.35
2018-11-28T01:40:20.082Z,70.46
2018-11-28T01:42:49.064Z,70.68
2018-11-28T01:45:21.143Z,70.70
2018-11-28T01:47:50.159Z,70.63
2018-11-28T01:50:20.056Z,70.58
2018-11-28T01:52:49.065Z,70.55
2018-11-28T01:55:19.123Z,70.70
2018-11-28T01:57:48.145Z,71.24
2018-11-28T02:00:23.233Z,70.96
2018-11-28T02:02:53.607Z,71.10
2018-11-28T02:05:22.595Z,70.92
2018-11-28T02:07:51.577Z,71.15
2018-11-28T02:10:20.582Z,71.61
2018-11-28T02:12:49.618Z,71.61
2018-11-28T02:15:19.645Z,71.51
2018-11-28T02:17:48.677Z,71.62
2018-11-28T02:20:18.096Z,71.70
2018-11-28T02:22:47.071Z,72.01
2018-11-28T02:25:17.013Z,71.96
2018-11-28T02:27:46.757Z,72.10
2018-11-28T02:30:16.528Z,72.19
2018-11-28T02:32:46.067Z,72.00
2018-11-28T02:35:15.669Z,72.09
2018-11-28T02:37:44.664Z,72.08
2018-11-28T02:40:16.726Z,72.11
2018-11-28T02:42:46.321Z,72.05
2018-11-28T02:45:17.265Z,71.92
2018-11-28T02:47:46.362Z,71.94
2018-11-28T02:50:15.314Z,72.14
2018-11-28T02:52:44.301Z,71.96
2018-11-28T02:55:14.135Z,72.28
2018-11-28T02:57:44.071Z,72.23
2018-11-28T03:00:15.306Z,71.99
2018-11-28T03:02:44.297Z,72.19
2018-11-28T03:05:13.706Z,72.11
2018-11-28T03:07:42.687Z,72.47
2018-11-28T03:10:17.663Z,72.46
2018-11-28T03:12:46.652Z,72.55
2018-11-28T03:15:20.636Z,72.70
2018-11-28T03:17:49.607Z,72.40
2018-11-28T03:20:18.598Z,72.28
2018-11-28T03:22:47.601Z,72.43
2018-11-28T03:25:16.593Z,72.41
2018-11-28T03:27:45.627Z,72.33
2018-11-28T03:30:15.544Z,72.33
2018-11-28T03:32:44.496Z,72.24
2018-11-28T03:35:15.552Z,72.27
2018-11-28T03:37:44.635Z,72.17
2018-11-28T03:40:13.751Z,72.26
2018-11-28T03:42:42.775Z,72.10
2018-11-28T03:45:13.792Z,72.52
2018-11-28T03:47:43.522Z,72.40
2018-11-28T03:50:13.373Z,72.26
2018-11-28T03:52:42.361Z,72.32
2018-11-28T03:55:13.205Z,72.19
2018-11-28T03:57:42.542Z,72.23
2018-11-28T04:00:12.735Z,72.14
2018-11-28T04:02:41.724Z,71.93
2018-11-28T04:05:11.240Z,71.75
2018-11-28T04:07:40.288Z,71.42
2018-11-28T04:10:10.425Z,71.17
2018-11-28T04:12:40.353Z,70.90
2018-11-28T04:15:12.240Z,71.00
2018-11-28T04:17:41.260Z,71.06
2018-11-28T04:20:11.872Z,70.92
2018-11-28T04:22:40.953Z,70.79
2018-11-28T04:25:10.657Z,71.07
2018-11-28T04:27:39.788Z,70.91
2018-11-28T04:30:11.308Z,70.98
2018-11-28T04:32:40.727Z,70.49
2018-11-28T04:35:11.034Z,70.51
2018-11-28T04:37:40.038Z,70.63
2018-11-28T04:40:14.921Z,70.66
2018-11-28T04:42:44.251Z,70.58
2018-11-28T04:45:15.194Z,70.46
2018-11-28T04:47:44.152Z,70.54
2018-11-28T04:50:13.390Z,70.45
2018-11-28T04:52:42.386Z,70.21
2018-11-28T04:55:12.710Z,70.26
2018-11-28T04:57:41.763Z,70.35
2018-11-28T05:00:13.052Z,70.26
2018-11-28T05:02:42.754Z,70.08
2018-11-28T05:05:11.804Z,70.04
2018-11-28T05:07:41.371Z,70.03
2018-11-28T05:10:12.485Z,69.86
2018-11-28T05:12:41.618Z,69.90
2018-11-28T05:15:14.482Z,69.94
2018-11-28T05:17:44.529Z,70.13
2018-11-28T05:20:14.689Z,69.82
2018-11-28T05:22:43.710Z,70.04
2018-11-28T05:25:16.063Z,70.00
2018-11-28T05:27:45.098Z,69.77
2018-11-28T05:30:15.099Z,69.90
2018-11-28T05:32:44.063Z,70.11
2018-11-28T05:35:15.237Z,70.13
2018-11-28T05:37:44.255Z,69.90
2018-11-28T05:40:23.794Z,69.96
2018-11-28T05:42:52.912Z,70.25
2018-11-28T05:45:21.907Z,70.28
2018-11-28T05:47:50.894Z,70.22
2018-11-28T05:50:20.754Z,70.22
2018-11-28T05:52:49.752Z,70.05
2018-11-28T05:55:19.965Z,70.15
2018-11-28T05:57:49.024Z,70.21
2018-11-28T06:00:32.911Z,70.38
2018-11-28T06:03:01.943Z,70.04
2018-11-28T06:05:30.972Z,69.86
2018-11-28T06:07:59.945Z,70.10
2018-11-28T06:10:28.955Z,69.55
2018-11-28T06:12:57.960Z,69.72
2018-11-28T06:15:27.031Z,69.49
2018-11-28T06:17:56.038Z,69.71
2018-11-28T06:20:25.039Z,69.46
2018-11-28T06:22:54.047Z,69.47
2018-11-28T06:25:23.060Z,69.53
2018-11-28T06:27:52.155Z,69.02
2018-11-28T06:30:21.275Z,69.12
2018-11-28T06:32:51.556Z,69.47
2018-11-28T06:35:19.374Z,69.55
2018-11-28T06:37:48.379Z,69.44
2018-11-28T06:40:23.635Z,69.46
2018-11-28T06:42:48.635Z,69.68
2018-11-28T06:45:20.036Z,69.73
2018-11-28T06:47:49.015Z,69.84
2018-11-28T06:50:19.026Z,69.73
2018-11-28T06:52:49.138Z,69.18
2018-11-28T06:55:20.418Z,69.39
2018-11-28T06:57:49.487Z,69.41
2018-11-28T07:00:20.308Z,70.02
2018-11-28T07:02:50.353Z,69.69
2018-11-28T07:05:19.579Z,69.49
2018-11-28T07:07:48.650Z,69.11
2018-11-28T07:10:18.626Z,69.25
2018-11-28T07:12:47.619Z,69.29
2018-11-28T07:15:17.768Z,69.21
2018-11-28T07:17:46.787Z,69.37
2018-11-28T07:20:17.234Z,68.87
2018-11-28T07:22:46.217Z,68.50
2018-11-28T07:25:18.138Z,68.62
2018-11-28T07:27:48.126Z,68.34
2018-11-28T07:30:20.197Z,68.34
2018-11-28T07:32:52.457Z,68.52
2018-11-28T07:35:22.492Z,68.44
2018-11-28T07:37:58.172Z,68.07
2018-11-28T07:40:27.364Z,67.96
2018-11-28T07:43:07.783Z,67.88
2018-11-28T07:45:45.945Z,67.76
2018-11-28T07:48:14.926Z,67.66
2018-11-28T07:50:43.971Z,67.76
2018-11-28T07:53:12.985Z,67.60
2018-11-28T07:55:41.955Z,67.30
2018-11-28T07:58:10.921Z,66.82
2018-11-28T08:00:39.914Z,66.45
2018-11-28T08:03:09.434Z,66.55
2018-11-28T08:05:39.062Z,66.53
2018-11-28T08:08:10.349Z,66.69
2018-11-28T08:10:39.375Z,66.83
2018-11-28T08:13:08.930Z,66.60
2018-11-28T08:15:37.922Z,66.36
2018-11-28T08:18:06.954Z,66.12
2018-11-28T08:20:36.262Z,65.68
2018-11-28T08:23:05.537Z,65.29
2018-11-28T08:25:34.810Z,64.91
2018-11-28T08:28:03.804Z,64.95
2018-11-28T08:30:32.840Z,64.90
2018-11-28T08:33:01.836Z,64.82
2018-11-28T08:35:30.857Z,64.73
2018-11-28T08:37:59.861Z,64.42
2018-11-28T08:40:28.860Z,64.05
2018-11-28T08:42:58.424Z,64.30
2018-11-28T08:45:27.401Z,64.38
2018-11-28T08:47:57.801Z,64.67
2018-11-28T08:50:28.115Z,64.23
2018-11-28T08:52:57.119Z,63.83
2018-11-28T08:55:26.124Z,63.34
2018-11-28T08:57:55.126Z,63.06
2018-11-28T09:00:25.309Z,63.23
2018-11-28T09:02:56.242Z,63.52
2018-11-28T09:05:25.262Z,64.07
2018-11-28T09:07:54.268Z,63.72
2018-11-28T09:10:23.292Z,63.65
2018-11-28T09:12:52.316Z,63.62
2018-11-28T09:15:25.297Z,63.07
2018-11-28T09:17:54.397Z,62.34
2018-11-28T09:20:23.391Z,62.01
2018-11-28T09:22:52.377Z,61.94
2018-11-28T09:25:21.578Z,62.02
2018-11-28T09:27:52.722Z,61.91
2018-11-28T09:30:21.697Z,61.73
2018-11-28T09:32:51.221Z,61.05
2018-11-28T09:35:20.512Z,60.76
2018-11-28T09:37:49.516Z,60.78
2018-11-28T09:40:23.722Z,60.82
2018-11-28T09:42:53.876Z,60.42
2018-11-28T09:45:22.859Z,60.04
2018-11-28T09:47:51.813Z,59.57
2018-11-28T09:50:24.745Z,58.71
2018-11-28T09:52:53.768Z,58.04
2018-11-28T09:55:29.476Z,56.84
2018-11-28T09:57:58.802Z,56.28
2018-11-28T10:00:28.490Z,55.99
2018-11-28T10:02:59.329Z,56.20
2018-11-28T10:05:30.472Z,56.67
2018-11-28T10:07:59.570Z,56.77
2018-11-28T10:10:28.626Z,56.96
2018-11-28T10:12:57.658Z,57.63
2018-11-28T10:15:27.668Z,58.12
2018-11-28T10:17:56.663Z,58.78
2018-11-28T10:20:25.685Z,59.42
2018-11-28T10:22:54.698Z,59.94
2018-11-28T10:25:25.652Z,60.47
2018-11-28T10:28:00.861Z,60.31
2018-11-28T10:30:31.041Z,60.48
2018-11-28T10:33:00.032Z,61.16
2018-11-28T10:35:29.176Z,61.56
2018-11-28T10:37:58.190Z,61.49
2018-11-28T10:40:27.189Z,61.74
2018-11-28T10:42:57.354Z,61.76
2018-11-28T10:45:27.469Z,62.30
2018-11-28T10:47:56.490Z,62.32
2018-11-28T10:50:25.532Z,62.37
2018-11-28T10:52:54.547Z,62.22
2018-11-28T10:55:24.375Z,61.83
2018-11-28T10:57:53.372Z,61.42
2018-11-28T11:00:31.815Z,61.64
2018-11-28T11:03:06.244Z,61.79
2018-11-28T11:05:40.611Z,61.75
2018-11-28T11:08:14.889Z,62.44
2018-11-28T11:10:49.264Z,62.78
2018-11-28T11:13:23.584Z,63.18
2018-11-28T11:15:56.327Z,63.23
2018-11-28T11:18:25.931Z,63.23
2018-11-28T11:20:54.936Z,63.07
2018-11-28T11:23:24.029Z,62.76
2018-11-28T11:25:53.454Z,62.92
2018-11-28T11:28:22.470Z,62.83
2018-11-28T11:30:51.625Z,63.47
2018-11-28T11:33:20.633Z,63.50
2018-11-28T11:35:49.623Z,63.53
2018-11-28T11:38:18.621Z,63.63
2018-11-28T11:40:47.614Z,62.77
2018-11-28T11:43:16.681Z,63.22
2018-11-28T11:45:45.699Z,63.64
2018-11-28T11:48:14.725Z,63.73
2018-11-28T11:50:43.721Z,63.53
2018-11-28T11:53:12.765Z,63.91
2018-11-28T11:55:41.785Z,63.40
2018-11-28T11:58:10.750Z,63.57
2018-11-28T12:00:41.173Z,63.93
2018-11-28T12:03:12.413Z,63.75
2018-11-28T12:05:43.987Z,64.11
2018-11-28T12:08:12.994Z,64.42
2018-11-28T12:10:41.967Z,64.51
2018-11-28T12:13:10.997Z,64.50
2018-11-28T12:15:40.055Z,64.19
2018-11-28T12:18:09.094Z,63.67
2018-11-28T12:20:42.696Z,63.89
2018-11-28T12:23:11.712Z,64.03
2018-11-28T12:25:40.758Z,64.38
2018-11-28T12:28:09.739Z,64.04
2018-11-28T12:30:43.510Z,63.84
2018-11-28T12:33:12.514Z,63.57
2018-11-28T12:35:41.554Z,63.70
2018-11-28T12:38:10.556Z,63.45
2018-11-28T12:40:39.568Z,63.35
2018-11-28T12:43:09.710Z,63.27
2018-11-28T12:45:46.827Z,63.01
2018-11-28T12:48:15.824Z,63.04
2018-11-28T12:50:44.827Z,63.03
2018-11-28T12:53:14.299Z,63.41
2018-11-28T12:55:43.274Z,64.00
2018-11-28T12:58:16.738Z,64.12
2018-11-28T13:00:45.856Z,63.88
2018-11-28T13:03:16.208Z,64.15
2018-11-28T13:05:45.248Z,64.08
2018-11-28T13:08:14.257Z,63.65
2018-11-28T13:10:43.408Z,63.73
2018-11-28T13:13:12.602Z,64.02
2018-11-28T13:15:41.608Z,64.24
2018-11-28T13:18:11.298Z,64.23
2018-11-28T13:20:41.443Z,64.51
2018-11-28T13:23:11.918Z,64.76
2018-11-28T13:25:40.953Z,65.06
2018-11-28T13:28:09.939Z,65.01
2018-11-28T13:30:39.217Z,65.07
2018-11-28T13:33:08.943Z,64.68
2018-11-28T13:35:38.027Z,65.00
2018-11-28T13:38:10.281Z,65.27
2018-11-28T13:40:39.345Z,65.11
2018-11-28T13:43:08.352Z,64.91
2018-11-28T13:45:40.057Z,65.09
2018-11-28T13:48:09.096Z,65.65
2018-11-28T13:50:38.119Z,65.59
2018-11-28T13:53:10.190Z,65.88
2018-11-28T13:55:44.430Z,66.23
2018-11-28T13:58:13.414Z,65.94
2018-11-28T14:00:42.401Z,65.93
2018-11-28T14:03:11.397Z,65.87
2018-11-28T14:05:40.393Z,66.09
2018-11-28T14:08:09.421Z,66.39
2018-11-28T14:10:38.414Z,65.87
2018-11-28T14:13:07.462Z,65.79
2018-11-28T14:15:36.456Z,66.02
2018-11-28T14:18:12.110Z,66.12
2018-11-28T14:20:41.078Z,66.19
2018-11-28T14:23:10.089Z,66.49
2018-11-28T14:25:39.185Z,66.33
2018-11-28T14:28:08.485Z,66.39
2018-11-28T14:30:37.951Z,66.24
2018-11-28T14:33:06.939Z,66.72
2018-11-28T14:35:35.946Z,66.77
2018-11-28T14:38:05.330Z,66.85
2018-11-28T14:40:34.546Z,67.16
2018-11-28T14:43:03.546Z,67.26
2018-11-28T14:45:32.969Z,67.30
2018-11-28T14:48:02.039Z,67.28
2018-11-28T14:50:31.054Z,67.42
2018-11-28T14:53:01.221Z,67.46
2018-11-28T14:55:31.430Z,67.44
2018-11-28T14:58:00.430Z,67.77
2018-11-28T15:00:30.314Z,67.84
2018-11-28T15:03:00.747Z,68.01
2018-11-28T15:05:39.202Z,67.94
2018-11-28T15:08:12.547Z,67.71
2018-11-28T15:11:16.683Z,67.84
2018-11-28T15:13:45.732Z,68.37
2018-11-28T15:16:14.765Z,68.28
2018-11-28T15:18:43.823Z,68.55
2018-11-28T15:21:12.856Z,68.43
2018-11-28T15:23:41.858Z,68.22
2018-11-28T15:26:10.968Z,68.46
2018-11-28T15:28:40.634Z,68.54
2018-11-28T15:31:09.622Z,68.41
2018-11-28T15:33:38.656Z,68.57
2018-11-28T15:36:07.684Z,68.51
2018-11-28T15:38:36.701Z,68.76
2018-11-28T15:41:06.333Z,68.34
2018-11-28T15:43:35.403Z,68.43
2018-11-28T15:46:04.865Z,68.80
2018-11-28T15:48:33.874Z,68.67
2018-11-28T15:51:02.863Z,68.50
2018-11-28T15:53:31.856Z,68.52
2018-11-28T15:56:00.917Z,68.57
2018-11-28T15:58:29.938Z,68.61
2018-11-28T16:00:59.107Z,68.54
2018-11-28T16:03:28.116Z,68.60
2018-11-28T16:05:57.149Z,68.54
2018-11-28T16:08:26.135Z,68.64
2018-11-28T16:10:55.196Z,68.67
2018-11-28T16:13:24.196Z,68.91
2018-11-28T16:15:54.527Z,68.83
2018-11-28T16:18:23.570Z,69.04
2018-11-28T16:20:52.564Z,68.83
2018-11-28T16:23:21.577Z,68.83
2018-11-28T16:25:50.665Z,69.11
2018-11-28T16:28:19.653Z,69.03
2018-11-28T16:30:48.650Z,68.85
2018-11-28T16:33:17.677Z,68.90
2018-11-28T16:35:46.739Z,68.86
2018-11-28T16:38:15.773Z,68.80
2018-11-28T16:40:44.799Z,68.82
2018-11-28T16:43:13.833Z,68.93
2018-11-28T16:45:42.861Z,68.99
2018-11-28T16:48:11.885Z,68.97
2018-11-28T16:50:40.933Z,68.85
2018-11-28T16:53:09.964Z,69.00
2018-11-28T16:55:38.971Z,69.01
2018-11-28T16:58:08.363Z,69.04
2018-11-28T17:00:39.523Z,68.85
2018-11-28T17:03:08.605Z,68.69
2018-11-28T17:05:37.784Z,68.67
2018-11-28T17:08:08.610Z,68.87
2018-11-28T17:10:37.630Z,68.68
2018-11-28T17:13:07.208Z,68.91
2018-11-28T17:15:36.243Z,68.76
2018-11-28T17:18:05.869Z,68.71
2018-11-28T17:20:34.949Z,68.91
2018-11-28T17:23:04.064Z,68.90
2018-11-28T17:25:33.185Z,68.59
2018-11-28T17:28:02.255Z,68.53
2018-11-28T17:30:31.327Z,68.41
2018-11-28T17:33:00.398Z,68.54
2018-11-28T17:35:29.389Z,68.46
2018-11-28T17:37:58.441Z,68.41
2018-11-28T17:40:28.445Z,68.42
2018-11-28T17:42:58.666Z,68.17
2018-11-28T17:45:28.497Z,68.24
2018-11-28T17:47:57.527Z,68.31
2018-11-28T17:50:27.188Z,68.20
2018-11-28T17:53:10.936Z,68.28
2018-11-28T17:55:53.184Z,68.17
2018-11-28T17:58:22.195Z,68.12
2018-11-28T18:00:51.201Z,68.20
2018-11-28T18:03:20.784Z,67.95
2018-11-28T18:05:49.858Z,68.39
2018-11-28T18:08:18.916Z,68.04
2018-11-28T18:10:47.974Z,68.16
2018-11-28T18:13:18.728Z,68.05
2018-11-28T18:15:52.126Z,67.99
2018-11-28T18:18:26.033Z,67.62
2018-11-28T18:20:55.127Z,67.96
2018-11-28T18:23:24.321Z,67.39
2018-11-28T18:25:53.298Z,67.58
2018-11-28T18:28:23.182Z,67.88
2018-11-28T18:30:52.210Z,67.76
2018-11-28T18:33:21.270Z,67.64
2018-11-28T18:35:52.088Z,67.38
2018-11-28T18:38:21.155Z,67.57
2018-11-28T18:40:51.467Z,67.65
2018-11-28T18:43:20.566Z,67.51
2018-11-28T18:45:52.048Z,67.50
2018-11-28T18:48:21.417Z,67.78
2018-11-28T18:50:50.476Z,67.61
2018-11-28T18:53:25.516Z,67.50
2018-11-28T18:59:09.804Z,67.71
2018-11-28T19:01:38.861Z,67.56
2018-11-28T19:07:28.270Z,67.67
2018-11-28T19:09:57.807Z,67.57
2018-11-28T19:12:26.889Z,67.70
2018-11-28T19:14:56.555Z,67.70
2018-11-28T19:17:25.713Z,67.80
2018-11-28T19:19:54.871Z,67.82
2018-11-28T19:22:24.100Z,67.75
2018-11-28T19:25:06.713Z,67.44
2018-11-28T19:27:39.957Z,67.48
2018-11-28T19:30:19.848Z,67.59
2018-11-28T19:32:48.924Z,67.54
2018-11-28T19:35:19.338Z,67.58
2018-11-28T19:37:48.421Z,67.60
2018-11-28T19:41:24.584Z,67.58
2018-11-28T19:43:58.692Z,67.63
2018-11-28T19:49:07.745Z,67.54
2018-11-28T19:51:37.055Z,67.53
2018-11-28T19:54:06.100Z,67.49
2018-11-28T19:56:35.160Z,67.41
2018-11-28T19:59:04.930Z,67.21
2018-11-28T20:01:34.018Z,67.46
2018-11-28T20:04:03.275Z,67.25
2018-11-28T20:06:32.452Z,67.05
2018-11-28T20:09:01.693Z,67.10
2018-11-28T20:11:32.022Z,66.91
2018-11-28T20:14:00.053Z,67.11
2018-11-28T20:16:29.238Z,66.94
2018-11-28T20:18:58.495Z,66.81
2018-11-28T20:21:28.462Z,66.85
2018-11-28T20:23:59.532Z,66.98
2018-11-28T20:26:28.901Z,66.71
2018-11-28T20:29:00.043Z,66.73
2018-11-28T20:31:30.092Z,66.72
2018-11-28T20:33:59.324Z,66.64
2018-11-28T20:36:29.734Z,66.80
2018-11-28T20:38:59.134Z,66.74
2018-11-28T20:41:28.372Z,66.37
2018-11-28T20:43:57.704Z,66.19
2018-11-28T20:46:26.907Z,66.57
2018-11-28T20:48:56.070Z,66.80
2018-11-28T20:51:25.301Z,66.75
2018-11-28T20:53:55.668Z,66.67
2018-11-28T20:56:29.816Z,66.68
2018-11-28T20:58:58.946Z,66.73
2018-11-28T21:01:28.830Z,66.76
2018-11-28T21:04:11.160Z,67.01
2018-11-28T21:06:40.238Z,67.05
2018-11-28T21:09:10.764Z,67.03
2018-11-28T21:11:39.853Z,67.06
2018-11-28T21:14:09.318Z,67.02
2018-11-28T21:16:44.048Z,66.92
2018-11-28T21:19:13.180Z,67.20
2018-11-28T21:21:48.924Z,67.01
2018-11-28T21:24:17.991Z,67.19
2018-11-28T21:26:47.184Z,67.37
2018-11-28T21:29:18.344Z,67.30
2018-11-28T21:31:48.497Z,67.34
2018-11-28T21:34:17.600Z,67.57
2018-11-28T21:36:48.627Z,67.75
2018-11-28T21:39:17.740Z,67.69
2018-11-28T21:41:51.373Z,67.94
2018-11-28T21:44:20.468Z,67.87
2018-11-28T21:46:55.418Z,67.86
2018-11-28T21:49:24.454Z,67.77
2018-11-28T21:51:53.522Z,67.88
2018-11-28T21:54:27.064Z,67.80
2018-11-28T21:56:56.098Z,67.63
2018-11-28T21:59:25.199Z,68.11
2018-11-28T22:01:54.267Z,68.05
2018-11-28T22:04:23.287Z,68.04
2018-11-28T22:06:52.408Z,68.05
2018-11-28T22:09:21.484Z,68.21
2018-11-28T22:11:50.526Z,68.20
2018-11-28T22:14:19.486Z,67.91
2018-11-28T22:16:48.498Z,68.14
2018-11-28T22:19:17.518Z,67.81
2018-11-28T22:21:46.572Z,67.73
2018-11-28T22:24:15.632Z,67.69
2018-11-28T22:26:44.728Z,67.50
2018-11-28T22:29:14.828Z,67.53
2018-11-28T22:31:43.798Z,67.38
2018-11-28T22:34:12.861Z,67.14
2018-11-28T22:36:42.207Z,67.04
2018-11-28T22:39:11.290Z,66.93
2018-11-28T22:41:40.278Z,67.34
2018-11-28T22:44:09.281Z,67.19
2018-11-28T22:46:38.282Z,67.11
2018-11-28T22:49:07.981Z,67.03
2018-11-28T22:51:37.231Z,66.83
2018-11-28T22:54:06.232Z,67.07
2018-11-28T22:56:35.228Z,67.06
2018-11-28T22:59:04.234Z,67.22
2018-11-28T23:01:44.296Z,67.96
2018-11-28T23:04:13.321Z,68.44
2018-11-28T23:06:42.316Z,68.70
2018-11-28T23:09:11.315Z,69.69
2018-11-28T23:11:40.363Z,70.78
2018-11-28T23:14:09.377Z,71.51
2018-11-28T23:16:38.375Z,72.04
2018-11-28T23:19:07.502Z,71.54
2018-11-28T23:21:36.503Z,71.42
2018-11-28T23:24:05.655Z,71.41
2018-11-28T23:26:34.681Z,71.31
2018-11-28T23:29:03.665Z,70.47
2018-11-28T23:31:32.653Z,69.81
2018-11-28T23:34:01.680Z,69.61
2018-11-28T23:36:30.761Z,69.28
2018-11-28T23:38:59.786Z,69.35
2018-11-28T23:41:28.813Z,69.14
2018-11-28T23:43:57.823Z,69.30
2018-11-28T23:46:26.844Z,69.28
2018-11-28T23:48:55.829Z,69.05
2018-11-28T23:51:24.858Z,69.10
2018-11-28T23:53:53.868Z,68.94
2018-11-28T23:56:22.909Z,69.15
2018-11-28T23:58:51.891Z,68.95
